Archival Weather

Norman Y Mineta San Jose Intl

San Jose, California (KSJC)

Report from: Wednesday, April 3, 2024 7:40 AM PDT
Current time: Tuesday, May 21, 2024 9:12 AM PDT

Current weather – Weather history – Daily summaries
Weather forecast

Temperature11.7°C (53.1°F)
Dew point8.9°C (48.0°F)
Winds 4 kts (2.1 m/s, 4.6 mph) East (100°)
Visibility10 mi. (16.1 km)
Clouds Few clouds 100 ft. (30 m)
Ceiling: Broken clouds 1,200 ft. (366 m)
Overcast 1,500 ft. (457 m)
Altimeter30.22 in.Hg (1023 mB)
Relative humidity83 %
Density altitude-572 ft. (-174 m)
Remarks Automated weather observing station with precipitation discriminator
Flight conditions Marginal Visual Meteorological Conditions
Raw dataKSJC 031440Z 10004KT 10SM FEW001 BKN012 OVC015 12/09 A3022 RMK AO2 T01170089
An error has occurred. This application may no longer respond until reloaded. Reload 🗙